createdAt,value
2018-11-23T00:00:26.458Z,34.03
2018-11-23T00:02:56.090Z,34.77
2018-11-23T00:05:24.926Z,41.03
2018-11-23T00:07:54.482Z,35.98
2018-11-23T00:10:24.434Z,31.80
2018-11-23T00:12:53.307Z,34.30
2018-11-23T00:15:23.221Z,38.30
2018-11-23T00:17:52.117Z,33.87
2018-11-23T00:20:22.386Z,36.93
2018-11-23T00:22:52.255Z,50.90
2018-11-23T00:25:22.096Z,49.93
2018-11-23T00:27:51.305Z,64.20
2018-11-23T00:30:21.528Z,77.13
2018-11-23T00:32:51.005Z,76.37
2018-11-23T00:35:21.541Z,52.70
2018-11-23T00:37:50.905Z,39.97
2018-11-23T00:40:22.003Z,52.23
2018-11-23T00:42:51.520Z,43.42
2018-11-23T00:45:20.356Z,39.73
2018-11-23T00:47:49.907Z,38.27
2018-11-23T00:50:20.222Z,33.80
2018-11-23T00:52:49.425Z,32.20
2018-11-23T00:55:24.557Z,34.33
2018-11-23T00:57:53.749Z,38.13
2018-11-23T01:00:23.984Z,39.73
2018-11-23T01:02:53.377Z,35.83
2018-11-23T01:05:22.214Z,32.53
2018-11-23T01:07:51.060Z,34.60
2018-11-23T01:10:21.167Z,31.30
2018-11-23T01:12:51.008Z,37.67
2018-11-23T01:15:19.848Z,35.50
2018-11-23T01:17:48.703Z,33.83
2018-11-23T01:20:18.885Z,37.07
2018-11-23T01:22:48.181Z,34.20
2018-11-23T01:25:18.518Z,33.13
2018-11-23T01:27:48.427Z,30.97
2018-11-23T01:30:22.088Z,33.13
2018-11-23T01:32:50.993Z,34.35
2018-11-23T01:35:19.841Z,31.80
2018-11-23T01:37:48.723Z,33.43
2018-11-23T01:40:18.930Z,36.77
2018-11-23T01:42:48.118Z,31.37
2018-11-23T01:45:17.217Z,33.23
2018-11-23T01:47:46.087Z,34.70
2018-11-23T01:50:17.070Z,34.30
2018-11-23T01:52:47.070Z,34.30
2018-11-23T01:55:17.370Z,32.30
2018-11-23T01:57:46.578Z,34.27
2018-11-23T02:00:18.197Z,37.97
2018-11-23T02:02:47.534Z,37.43
2018-11-23T02:05:16.466Z,35.10
2018-11-23T02:07:45.458Z,31.13
2018-11-23T02:10:15.431Z,30.17
2018-11-23T02:12:44.387Z,32.50
2018-11-23T02:15:15.080Z,34.10
2018-11-23T02:17:43.946Z,32.70
2018-11-23T02:20:13.964Z,33.93
2018-11-23T02:22:42.964Z,35.70
2018-11-23T02:25:11.865Z,32.03
2018-11-23T02:27:40.773Z,35.70
2018-11-23T02:30:13.026Z,33.47
2018-11-23T02:32:42.106Z,38.90
2018-11-23T02:35:10.988Z,36.43
2018-11-23T02:37:39.866Z,40.00
2018-11-23T02:40:09.686Z,32.17
2018-11-23T02:42:38.898Z,40.50
2018-11-23T02:45:10.923Z,37.23
2018-11-23T02:47:39.964Z,39.87
2018-11-23T02:50:08.877Z,37.27
2018-11-23T02:52:38.025Z,37.03
2018-11-23T02:55:07.659Z,37.90
2018-11-23T02:57:36.475Z,39.30
2018-11-23T03:00:08.095Z,39.07
2018-11-23T03:02:36.907Z,43.95
2018-11-23T03:05:06.437Z,40.80
2018-11-23T03:07:35.451Z,36.10
2018-11-23T03:10:04.398Z,37.97
2018-11-23T03:12:33.288Z,39.07
2018-11-23T03:15:02.132Z,35.43
2018-11-23T03:17:31.068Z,38.80
2018-11-23T03:19:59.969Z,39.53
2018-11-23T03:22:28.808Z,42.53
2018-11-23T03:24:57.643Z,39.07
2018-11-23T03:27:26.505Z,41.00
2018-11-23T03:29:55.444Z,36.93
2018-11-23T03:32:24.282Z,36.80
2018-11-23T03:34:53.516Z,36.88
2018-11-23T03:37:22.410Z,37.67
2018-11-23T03:39:51.294Z,39.20
2018-11-23T03:42:20.125Z,37.53
2018-11-23T03:44:48.978Z,38.50
2018-11-23T03:47:17.806Z,33.73
2018-11-23T03:49:46.629Z,39.97
2018-11-23T03:52:15.470Z,41.03
2018-11-23T03:54:44.318Z,39.60
2018-11-23T03:57:13.207Z,41.57
2018-11-23T03:59:42.138Z,34.70
2018-11-23T04:02:11.106Z,36.77
2018-11-23T04:04:39.982Z,41.63
2018-11-23T04:07:08.973Z,42.97
2018-11-23T04:09:37.793Z,38.50
2018-11-23T04:12:06.673Z,45.33
2018-11-23T04:14:35.810Z,37.77
2018-11-23T04:17:04.938Z,38.40
2018-11-23T04:19:33.853Z,38.67
2018-11-23T04:22:02.842Z,42.40
2018-11-23T04:24:31.991Z,41.57
2018-11-23T04:27:00.825Z,38.10
2018-11-23T04:29:29.716Z,41.20
2018-11-23T04:31:58.547Z,39.57
2018-11-23T04:34:28.065Z,38.57
2018-11-23T04:36:57.373Z,37.77
2018-11-23T04:39:26.298Z,40.87
2018-11-23T04:41:55.134Z,42.93
2018-11-23T04:44:24.338Z,36.90
2018-11-23T04:46:53.160Z,33.77
2018-11-23T04:49:22.274Z,36.83
2018-11-23T04:51:51.173Z,39.50
2018-11-23T04:54:20.034Z,35.20
2018-11-23T04:56:48.934Z,38.03
2018-11-23T04:59:17.842Z,39.10
2018-11-23T05:01:46.661Z,34.87
2018-11-23T05:04:15.506Z,39.30
2018-11-23T05:06:44.367Z,36.57
2018-11-23T05:09:13.289Z,39.37
2018-11-23T05:11:42.165Z,41.50
2018-11-23T05:14:11.241Z,43.00
2018-11-23T05:16:40.151Z,42.40
2018-11-23T05:19:08.982Z,39.37
2018-11-23T05:21:37.849Z,42.60
2018-11-23T05:24:06.729Z,36.80
2018-11-23T05:26:35.559Z,40.77
2018-11-23T05:29:04.430Z,46.93
2018-11-23T05:31:33.248Z,48.30
2018-11-23T05:34:02.081Z,43.00
2018-11-23T05:36:30.982Z,38.53
2018-11-23T05:38:59.899Z,39.57
2018-11-23T05:41:28.689Z,39.37
2018-11-23T05:43:57.562Z,35.80
2018-11-23T05:46:26.386Z,39.17
2018-11-23T05:48:55.218Z,41.03
2018-11-23T05:51:24.106Z,42.63
2018-11-23T05:53:53.010Z,38.63
2018-11-23T05:56:21.889Z,44.73
2018-11-23T05:58:50.860Z,37.30
2018-11-23T06:01:19.773Z,37.10
2018-11-23T06:03:48.689Z,38.03
2018-11-23T06:06:17.731Z,40.50
2018-11-23T06:08:46.553Z,38.70
2018-11-23T06:11:15.457Z,41.30
2018-11-23T06:13:44.329Z,43.37
2018-11-23T06:16:13.172Z,42.23
2018-11-23T06:18:42.070Z,39.77
2018-11-23T06:21:10.907Z,36.53
2018-11-23T06:23:39.948Z,35.67
2018-11-23T06:26:13.494Z,39.47
2018-11-23T06:28:42.395Z,39.47
2018-11-23T06:31:11.759Z,34.87
2018-11-23T06:33:42.094Z,40.30
2018-11-23T06:36:11.010Z,41.80
2018-11-23T06:38:39.856Z,45.80
2018-11-23T06:41:10.531Z,39.80
2018-11-23T06:43:38.322Z,37.83
2018-11-23T06:46:08.882Z,36.30
2018-11-23T06:48:37.814Z,43.17
2018-11-23T06:51:07.165Z,37.13
2018-11-23T06:53:36.115Z,37.97
2018-11-23T06:56:05.433Z,42.67
2018-11-23T06:58:34.301Z,37.83
2018-11-23T07:01:03.167Z,41.30
2018-11-23T07:03:32.017Z,40.83
2018-11-23T07:06:00.889Z,35.60
2018-11-23T07:08:29.761Z,42.80
2018-11-23T07:10:59.538Z,40.90
2018-11-23T07:13:29.241Z,41.43
2018-11-23T07:15:58.159Z,40.97
2018-11-23T07:18:27.418Z,39.77
2018-11-23T07:20:56.538Z,35.57
2018-11-23T07:23:25.410Z,38.93
2018-11-23T07:25:54.326Z,41.80
2018-11-23T07:28:23.190Z,35.05
2018-11-23T07:30:52.152Z,38.90
2018-11-23T07:33:21.133Z,42.37
2018-11-23T07:35:52.842Z,41.40
2018-11-23T07:38:21.733Z,44.57
2018-11-23T07:41:01.990Z,38.77
2018-11-23T07:43:30.905Z,41.57
2018-11-23T07:45:59.789Z,43.57
2018-11-23T07:48:28.705Z,44.10
2018-11-23T07:50:57.537Z,38.77
2018-11-23T07:53:26.534Z,38.00
2018-11-23T07:55:55.397Z,36.23
2018-11-23T07:58:24.258Z,34.30
2018-11-23T08:00:53.125Z,36.83
2018-11-23T08:03:21.997Z,37.13
2018-11-23T08:05:50.847Z,38.23
2018-11-23T08:08:19.725Z,44.60
2018-11-23T08:10:47.762Z,45.33
2018-11-23T08:13:16.662Z,36.57
2018-11-23T08:15:45.482Z,37.80
2018-11-23T08:18:14.407Z,38.20
2018-11-23T08:20:43.229Z,37.67
2018-11-23T08:23:12.130Z,48.77
2018-11-23T08:25:41.368Z,44.90
2018-11-23T08:28:10.218Z,34.00
2018-11-23T08:30:39.084Z,42.37
2018-11-23T08:33:08.189Z,40.67
2018-11-23T08:35:37.112Z,36.90
2018-11-23T08:38:05.982Z,40.47
2018-11-23T08:40:34.855Z,38.13
2018-11-23T08:43:03.762Z,34.37
2018-11-23T08:45:32.633Z,36.40
2018-11-23T08:48:01.494Z,35.87
2018-11-23T08:50:30.989Z,37.30
2018-11-23T08:52:59.890Z,38.53
2018-11-23T08:55:28.913Z,38.60
2018-11-23T08:57:57.785Z,40.13
2018-11-23T09:00:28.655Z,33.47
2018-11-23T09:03:00.171Z,36.23
2018-11-23T09:05:29.115Z,35.30
2018-11-23T09:07:58.351Z,42.00
2018-11-23T09:10:29.569Z,31.60
2018-11-23T09:13:00.119Z,39.97
2018-11-23T09:15:28.963Z,32.80
2018-11-23T09:17:57.814Z,35.23
2018-11-23T09:20:26.753Z,33.30
2018-11-23T09:22:55.644Z,40.57
2018-11-23T09:25:24.878Z,35.20
2018-11-23T09:27:53.788Z,34.10
2018-11-23T09:30:23.922Z,35.20
2018-11-23T09:32:53.468Z,31.30
2018-11-23T09:35:22.566Z,31.37
2018-11-23T09:37:51.706Z,32.47
2018-11-23T09:40:23.954Z,37.47
2018-11-23T09:42:53.172Z,35.80
2018-11-23T09:45:23.586Z,30.43
2018-11-23T09:47:54.205Z,28.37
2018-11-23T09:50:24.181Z,32.53
2018-11-23T09:52:54.058Z,30.77
2018-11-23T09:55:24.130Z,31.47
2018-11-23T09:57:53.189Z,31.87
2018-11-23T10:00:24.123Z,29.53
2018-11-23T10:02:54.253Z,26.80
2018-11-23T10:05:23.809Z,29.50
2018-11-23T10:07:54.253Z,31.40
2018-11-23T10:10:23.745Z,32.23
2018-11-23T10:12:52.785Z,33.23
2018-11-23T10:15:22.363Z,29.90
2018-11-23T10:17:51.196Z,36.23
2018-11-23T10:20:22.408Z,29.43
2018-11-23T10:22:51.379Z,29.65
2018-11-23T10:25:22.531Z,21.50
2018-11-23T10:27:51.488Z,28.10
2018-11-23T10:30:22.366Z,29.73
2018-11-23T10:32:52.573Z,28.20
2018-11-23T10:35:21.434Z,33.83
2018-11-23T10:37:51.708Z,31.00
2018-11-23T10:40:22.731Z,31.20
2018-11-23T10:42:51.676Z,37.27
2018-11-23T10:45:22.871Z,29.30
2018-11-23T10:47:52.470Z,28.83
2018-11-23T10:50:22.693Z,30.37
2018-11-23T10:52:51.778Z,30.37
2018-11-23T10:55:22.178Z,32.80
2018-11-23T10:57:51.184Z,28.60
2018-11-23T11:00:25.507Z,28.97
2018-11-23T11:03:00.424Z,28.75
2018-11-23T11:05:34.737Z,27.63
2018-11-23T11:08:04.477Z,28.70
2018-11-23T11:10:33.346Z,25.90
2018-11-23T11:13:02.240Z,29.17
2018-11-23T11:15:31.083Z,30.07
2018-11-23T11:17:59.988Z,27.80
2018-11-23T11:20:28.875Z,25.83
2018-11-23T11:22:57.706Z,27.40
2018-11-23T11:25:26.541Z,24.50
2018-11-23T11:27:55.460Z,25.35
2018-11-23T11:30:24.299Z,25.97
2018-11-23T11:32:53.216Z,29.90
2018-11-23T11:35:22.129Z,24.57
2018-11-23T11:37:51.002Z,24.90
2018-11-23T11:40:20.501Z,22.87
2018-11-23T11:42:49.418Z,25.90
2018-11-23T11:45:19.063Z,26.63
2018-11-23T11:47:48.516Z,25.97
2018-11-23T11:50:17.413Z,24.03
2018-11-23T11:52:47.576Z,28.43
2018-11-23T11:55:18.722Z,27.53
2018-11-23T11:57:48.062Z,25.47
2018-11-23T12:00:18.411Z,26.10
2018-11-23T12:02:47.866Z,22.70
2018-11-23T12:05:16.802Z,27.00
2018-11-23T12:07:45.666Z,22.07
2018-11-23T12:10:16.675Z,26.10
2018-11-23T12:12:45.505Z,25.70
2018-11-23T12:15:15.157Z,26.60
2018-11-23T12:17:44.145Z,22.30
2018-11-23T12:20:16.221Z,24.37
2018-11-23T12:22:45.664Z,23.00
2018-11-23T12:25:14.621Z,24.60
2018-11-23T12:27:43.555Z,25.37
2018-11-23T12:30:15.553Z,27.00
2018-11-23T12:32:45.513Z,22.27
2018-11-23T12:35:15.216Z,27.80
2018-11-23T12:37:44.081Z,28.30
2018-11-23T12:40:14.330Z,30.20
2018-11-23T12:42:43.862Z,29.87
2018-11-23T12:45:17.577Z,34.87
2018-11-23T12:47:46.448Z,44.42
2018-11-23T12:50:17.441Z,40.73
2018-11-23T12:52:46.563Z,41.67
2018-11-23T12:55:15.946Z,33.30
2018-11-23T12:57:45.078Z,25.23
2018-11-23T13:00:23.970Z,20.97
2018-11-23T13:02:55.580Z,23.97
2018-11-23T13:05:25.388Z,26.20
2018-11-23T13:07:55.259Z,24.47
2018-11-23T13:10:25.060Z,21.47
2018-11-23T13:12:54.690Z,26.00
2018-11-23T13:15:23.765Z,22.27
2018-11-23T13:17:52.910Z,19.67
2018-11-23T13:20:21.808Z,22.47
2018-11-23T13:22:50.699Z,22.03
2018-11-23T13:25:21.942Z,24.23
2018-11-23T13:27:50.813Z,22.73
2018-11-23T13:30:22.653Z,24.03
2018-11-23T13:32:51.613Z,26.30
2018-11-23T13:35:20.709Z,22.13
2018-11-23T13:37:49.728Z,25.03
2018-11-23T13:40:20.045Z,25.10
2018-11-23T13:42:49.443Z,21.93
2018-11-23T13:45:20.513Z,21.13
2018-11-23T13:47:49.406Z,19.13
2018-11-23T13:50:19.691Z,26.43
2018-11-23T13:52:49.419Z,25.40
2018-11-23T13:55:25.070Z,22.80
2018-11-23T13:57:53.996Z,23.80
2018-11-23T14:00:24.266Z,21.27
2018-11-23T14:02:53.227Z,21.10
2018-11-23T14:05:23.508Z,21.50
2018-11-23T14:07:53.808Z,22.70
2018-11-23T14:10:23.819Z,21.63
2018-11-23T14:12:53.247Z,37.90
2018-11-23T14:15:23.550Z,25.33
2018-11-23T14:17:53.565Z,23.97
2018-11-23T14:20:23.413Z,25.50
2018-11-23T14:22:52.325Z,28.00
2018-11-23T14:25:22.554Z,28.40
2018-11-23T14:27:51.880Z,22.63
2018-11-23T14:30:22.155Z,26.10
2018-11-23T14:32:51.197Z,24.83
2018-11-23T14:35:22.447Z,28.97
2018-11-23T14:37:52.225Z,24.87
2018-11-23T14:40:21.102Z,23.40
2018-11-23T14:42:50.439Z,27.50
2018-11-23T14:45:22.928Z,31.70
2018-11-23T14:47:52.646Z,27.17
2018-11-23T14:50:22.852Z,27.43
2018-11-23T14:52:52.903Z,21.63
2018-11-23T14:55:21.975Z,23.07
2018-11-23T14:57:51.003Z,25.93
2018-11-23T15:00:24.319Z,22.50
2018-11-23T15:02:54.300Z,23.97
2018-11-23T15:05:23.174Z,26.77
2018-11-23T15:07:52.116Z,27.00
2018-11-23T15:10:22.477Z,26.83
2018-11-23T15:12:52.636Z,25.53
2018-11-23T15:15:22.928Z,32.10
2018-11-23T15:17:52.658Z,27.20
2018-11-23T15:20:23.150Z,27.50
2018-11-23T15:22:54.902Z,24.60
2018-11-23T15:25:23.761Z,27.93
2018-11-23T15:27:52.734Z,29.37
2018-11-23T15:30:40.337Z,29.07
2018-11-23T15:33:10.457Z,33.60
2018-11-23T15:35:39.979Z,30.33
2018-11-23T15:38:10.711Z,31.40
2018-11-23T15:40:39.649Z,29.23
2018-11-23T15:43:10.103Z,27.57
2018-11-23T15:45:39.216Z,36.07
2018-11-23T15:48:08.717Z,33.03
2018-11-23T15:50:38.939Z,32.43
2018-11-23T15:53:09.189Z,34.53
2018-11-23T15:55:39.069Z,29.33
2018-11-23T15:58:12.549Z,31.33
2018-11-23T16:00:42.701Z,32.13
2018-11-23T16:03:12.501Z,35.67
2018-11-23T16:05:41.407Z,36.13
2018-11-23T16:08:12.786Z,32.90
2018-11-23T16:10:41.697Z,43.53
2018-11-23T16:13:11.691Z,33.95
2018-11-23T16:15:40.186Z,30.80
2018-11-23T16:18:09.418Z,30.07
2018-11-23T16:20:40.356Z,34.67
2018-11-23T16:23:11.802Z,35.50
2018-11-23T16:25:41.039Z,34.50
2018-11-23T16:28:10.595Z,36.23
2018-11-23T16:30:40.865Z,33.00
2018-11-23T16:33:17.817Z,31.67
2018-11-23T16:35:46.745Z,33.47
2018-11-23T16:38:17.220Z,27.10
2018-11-23T16:40:47.965Z,27.57
2018-11-23T16:43:17.179Z,30.60
2018-11-23T16:45:46.602Z,29.17
2018-11-23T16:48:16.073Z,29.40
2018-11-23T16:50:45.406Z,27.57
2018-11-23T16:53:14.980Z,36.40
2018-11-23T16:55:44.349Z,31.63
2018-11-23T16:58:13.918Z,28.40
2018-11-23T17:00:44.225Z,26.73
2018-11-23T17:03:16.593Z,37.90
2018-11-23T17:05:47.834Z,30.00
2018-11-23T17:08:16.684Z,30.30
2018-11-23T17:10:45.556Z,27.80
2018-11-23T17:13:14.542Z,34.40
2018-11-23T17:15:43.410Z,29.10
2018-11-23T17:18:12.264Z,41.10
2018-11-23T17:20:41.466Z,38.87
2018-11-23T17:23:11.385Z,32.90
2018-11-23T17:25:40.333Z,35.80
2018-11-23T17:28:10.398Z,33.80
2018-11-23T17:30:39.474Z,30.57
2018-11-23T17:33:08.466Z,28.43
2018-11-23T17:35:37.478Z,30.37
2018-11-23T17:38:06.493Z,31.67
2018-11-23T17:40:37.219Z,28.63
2018-11-23T17:43:06.669Z,29.50
2018-11-23T17:45:35.896Z,27.00
2018-11-23T17:48:05.145Z,23.93
2018-11-23T17:50:35.307Z,27.70
2018-11-23T17:53:04.140Z,28.63
2018-11-23T17:55:33.111Z,26.67
2018-11-23T17:58:01.928Z,55.47
2018-11-23T18:00:38.808Z,35.80
2018-11-23T18:03:01.922Z,28.17
2018-11-23T18:05:31.627Z,31.77
2018-11-23T18:08:01.153Z,23.10
2018-11-23T18:10:31.288Z,22.17
2018-11-23T18:13:00.769Z,23.67
2018-11-23T18:15:30.992Z,21.87
2018-11-23T18:18:00.813Z,29.53
2018-11-23T18:20:30.192Z,24.80
2018-11-23T18:22:59.918Z,30.23
2018-11-23T18:25:31.276Z,62.73
2018-11-23T18:28:02.108Z,49.57
2018-11-23T18:30:32.212Z,29.83
2018-11-23T18:33:02.360Z,35.17
2018-11-23T18:35:31.259Z,35.13
2018-11-23T18:38:00.142Z,33.63
2018-11-23T18:40:36.473Z,33.97
2018-11-23T18:42:58.059Z,51.87
2018-11-23T18:45:26.997Z,33.80
2018-11-23T18:47:55.933Z,36.30
2018-11-23T18:50:24.910Z,30.67
2018-11-23T18:52:53.857Z,29.17
2018-11-23T18:55:22.835Z,32.73
2018-11-23T18:57:51.772Z,36.97
2018-11-23T19:00:20.657Z,36.70
2018-11-23T19:02:49.590Z,36.03
2018-11-23T19:05:21.724Z,29.10
2018-11-23T19:07:51.143Z,24.47
2018-11-23T19:10:20.049Z,28.23
2018-11-23T19:12:48.915Z,27.73
2018-11-23T19:15:25.267Z,24.70
2018-11-23T19:17:48.559Z,25.40
2018-11-23T19:20:20.303Z,25.00
2018-11-23T19:22:50.714Z,20.80
2018-11-23T19:25:19.946Z,21.37
2018-11-23T19:27:48.790Z,24.37
2018-11-23T19:30:18.987Z,21.33
2018-11-23T19:32:47.854Z,19.60
2018-11-23T19:35:16.702Z,25.53
2018-11-23T19:37:45.595Z,29.03
2018-11-23T19:40:15.584Z,28.80
2018-11-23T19:42:45.295Z,26.93
2018-11-23T19:45:15.324Z,20.50
2018-11-23T19:47:44.276Z,21.93
2018-11-23T19:50:16.552Z,28.27
2018-11-23T19:52:45.697Z,24.80
2018-11-23T19:55:15.661Z,20.17
2018-11-23T19:57:44.731Z,19.30
2018-11-23T20:00:20.861Z,17.33
2018-11-23T20:02:49.983Z,17.73
2018-11-23T20:05:19.017Z,15.50
2018-11-23T20:07:49.092Z,17.37
2018-11-23T20:10:18.799Z,15.17
2018-11-23T20:12:48.727Z,17.27
2018-11-23T20:15:18.489Z,17.07
2018-11-23T20:17:47.855Z,14.80
2018-11-23T20:20:17.336Z,15.00
2018-11-23T20:22:47.236Z,31.03
2018-11-23T20:25:17.484Z,22.17
2018-11-23T20:27:47.117Z,19.67
2018-11-23T20:30:16.921Z,20.80
2018-11-23T20:32:45.897Z,21.07
2018-11-23T20:35:17.756Z,21.00
2018-11-23T20:37:46.657Z,22.20
2018-11-23T20:40:16.466Z,15.00
2018-11-23T20:42:45.681Z,15.73
2018-11-23T20:45:14.616Z,16.30
2018-11-23T20:47:43.444Z,14.20
2018-11-23T20:50:14.478Z,15.73
2018-11-23T20:52:44.280Z,15.37
2018-11-23T20:55:15.329Z,15.17
2018-11-23T20:57:44.308Z,15.87
2018-11-23T21:00:14.978Z,18.43
2018-11-23T21:02:44.352Z,19.83
2018-11-23T21:05:14.346Z,18.30
2018-11-23T21:07:43.250Z,18.27
2018-11-23T21:10:20.503Z,30.93
2018-11-23T21:12:47.396Z,22.70
2018-11-23T21:15:31.890Z,16.60
2018-11-23T21:18:03.122Z,18.60
2018-11-23T21:20:32.119Z,22.03
2018-11-23T21:23:01.001Z,21.50
2018-11-23T21:25:29.985Z,17.70
2018-11-23T21:27:58.901Z,17.35
2018-11-23T21:30:27.809Z,21.30
2018-11-23T21:32:57.035Z,18.70
2018-11-23T21:35:26.255Z,19.97
2018-11-23T21:37:55.100Z,19.00
2018-11-23T21:40:24.001Z,20.43
2018-11-23T21:42:53.142Z,17.53
2018-11-23T21:45:22.103Z,18.97
2018-11-23T21:47:50.956Z,16.03
2018-11-23T21:50:25.338Z,17.97
2018-11-23T21:52:50.658Z,17.97
2018-11-23T21:55:21.872Z,19.57
2018-11-23T21:57:50.970Z,19.17
2018-11-23T22:00:19.917Z,19.10
2018-11-23T22:02:48.826Z,19.02
2018-11-23T22:05:17.661Z,17.00
2018-11-23T22:07:46.527Z,22.50
2018-11-23T22:10:17.487Z,20.80
2018-11-23T22:12:46.338Z,19.23
2018-11-23T22:15:18.497Z,15.80
2018-11-23T22:17:47.929Z,21.70
2018-11-23T22:20:19.006Z,18.53
2018-11-23T22:22:47.992Z,22.57
2018-11-23T22:25:18.224Z,19.53
2018-11-23T22:27:47.227Z,20.80
2018-11-23T22:30:24.155Z,22.60
2018-11-23T22:32:53.025Z,23.13
2018-11-23T22:35:22.063Z,24.43
2018-11-23T22:37:50.940Z,24.67
2018-11-23T22:40:20.507Z,37.80
2018-11-23T22:42:51.687Z,22.13
2018-11-23T22:45:20.574Z,27.00
2018-11-23T22:47:49.478Z,23.27
2018-11-23T22:50:20.454Z,25.13
2018-11-23T22:52:49.830Z,25.83
2018-11-23T22:55:19.395Z,25.07
2018-11-23T22:57:48.278Z,26.40
2018-11-23T23:00:29.770Z,30.97
2018-11-23T23:02:58.654Z,32.60
2018-11-23T23:05:27.642Z,29.63
2018-11-23T23:07:56.518Z,23.50
2018-11-23T23:10:26.205Z,30.77
2018-11-23T23:12:55.066Z,29.80
2018-11-23T23:15:23.922Z,28.63
2018-11-23T23:17:53.069Z,39.93
2018-11-23T23:20:22.915Z,33.43
2018-11-23T23:22:51.805Z,27.63
2018-11-23T23:25:20.714Z,33.00
2018-11-23T23:27:49.593Z,29.07
2018-11-23T23:30:19.538Z,29.73
2018-11-23T23:32:49.133Z,30.53
2018-11-23T23:35:18.262Z,30.67
2018-11-23T23:37:47.070Z,31.83
2018-11-23T23:40:16.910Z,32.97
2018-11-23T23:42:46.238Z,31.37
2018-11-23T23:45:16.148Z,32.13
2018-11-23T23:47:45.170Z,26.80
2018-11-23T23:50:20.507Z,30.27
2018-11-23T23:52:49.859Z,30.07
2018-11-23T23:55:18.717Z,28.62
2018-11-23T23:57:48.272Z,26.63
